createdAt,value
2023-03-06T00:01:08.242Z,97602.75
2023-03-06T00:03:35.547Z,97603.56
2023-03-06T00:06:02.638Z,97593.72
2023-03-06T00:08:29.875Z,97597.97
2023-03-06T00:10:57.751Z,97587.25
2023-03-06T00:13:26.743Z,97593.84
2023-03-06T00:15:53.920Z,97587.56
2023-03-06T00:18:21.041Z,97588.84
2023-03-06T00:20:48.136Z,97598.72
2023-03-06T00:23:15.263Z,97596.19
2023-03-06T00:25:44.262Z,97596.03
2023-03-06T00:28:12.529Z,97587.50
2023-03-06T00:30:39.734Z,97593.78
2023-03-06T00:33:06.926Z,97597.75
2023-03-06T00:35:33.983Z,97600.28
2023-03-06T00:38:01.038Z,97600.66
2023-03-06T00:40:28.079Z,97599.19
2023-03-06T00:42:55.111Z,97595.91
2023-03-06T00:45:22.226Z,97606.28
2023-03-06T00:47:49.438Z,97604.81
2023-03-06T00:50:16.656Z,97595.28
2023-03-06T00:52:43.668Z,97594.94
2023-03-06T00:55:10.981Z,97591.97
2023-03-06T00:57:39.409Z,97598.53
2023-03-06T01:00:07.749Z,97591.50
2023-03-06T01:02:34.836Z,97588.00
2023-03-06T01:05:02.332Z,97592.94
2023-03-06T01:07:34.133Z,97601.00
2023-03-06T01:10:01.256Z,97595.41
2023-03-06T01:12:30.995Z,97599.34
2023-03-06T01:14:58.020Z,97601.63
2023-03-06T01:17:25.089Z,97600.81
2023-03-06T01:19:52.096Z,97603.13
2023-03-06T01:22:19.211Z,97589.97
2023-03-06T01:24:46.210Z,97598.53
2023-03-06T01:27:14.152Z,97601.63
2023-03-06T01:29:43.965Z,97600.66
2023-03-06T01:32:11.085Z,97599.88
2023-03-06T01:34:38.050Z,97605.44
2023-03-06T01:37:05.029Z,97607.59
2023-03-06T01:39:32.226Z,97601.50
2023-03-06T01:41:59.438Z,97603.31
2023-03-06T01:44:26.569Z,97604.13
2023-03-06T01:46:53.613Z,97597.72
2023-03-06T01:49:28.631Z,97609.59
2023-03-06T01:52:10.575Z,97606.34
2023-03-06T01:55:11.363Z,97609.25
2023-03-06T01:57:52.997Z,97611.56
2023-03-06T02:00:24.198Z,97611.25
2023-03-06T02:02:58.871Z,97614.03
2023-03-06T02:05:25.906Z,97612.56
2023-03-06T02:07:54.547Z,97620.63
2023-03-06T02:10:22.134Z,97607.31
2023-03-06T02:12:51.364Z,97608.09
2023-03-06T02:15:22.452Z,97608.59
2023-03-06T02:17:51.516Z,97611.22
2023-03-06T02:20:48.068Z,97616.16
2023-03-06T02:23:21.801Z,97611.53
2023-03-06T02:25:51.081Z,97619.13
2023-03-06T02:28:22.349Z,97622.56
2023-03-06T02:30:54.789Z,97623.56
2023-03-06T02:33:25.104Z,97618.00
2023-03-06T02:36:14.781Z,97615.72
2023-03-06T02:38:48.960Z,97613.75
2023-03-06T02:41:17.953Z,97610.78
2023-03-06T02:43:48.164Z,97610.31
2023-03-06T02:46:15.302Z,97610.47
2023-03-06T02:48:42.549Z,97608.66
2023-03-06T02:51:09.536Z,97610.31
2023-03-06T02:53:36.789Z,97613.13
2023-03-06T02:56:03.822Z,97621.47
2023-03-06T02:58:30.789Z,97616.72
2023-03-06T03:00:58.959Z,97613.44
2023-03-06T03:03:26.698Z,97614.41
2023-03-06T03:05:53.667Z,97619.16
2023-03-06T03:08:24.802Z,97605.53
2023-03-06T03:10:57.108Z,97618.19
2023-03-06T03:13:25.377Z,97612.41
2023-03-06T03:16:07.055Z,97619.00
2023-03-06T03:18:34.761Z,97619.97
2023-03-06T03:21:02.757Z,97620.13
2023-03-06T03:23:29.743Z,97618.63
2023-03-06T03:26:10.218Z,97612.03
2023-03-06T03:28:40.176Z,97623.84
2023-03-06T03:31:09.324Z,97624.03
2023-03-06T03:33:36.498Z,97621.22
2023-03-06T03:36:06.076Z,97620.25
2023-03-06T03:38:34.878Z,97619.44
2023-03-06T03:41:02.981Z,97623.22
2023-03-06T03:43:30.961Z,97626.53
2023-03-06T03:45:59.156Z,97629.44
2023-03-06T03:48:26.530Z,97625.84
2023-03-06T03:50:53.626Z,97624.19
2023-03-06T03:53:23.365Z,97629.31
2023-03-06T03:55:50.430Z,97628.16
2023-03-06T03:58:20.019Z,97621.25
2023-03-06T04:00:48.289Z,97625.03
2023-03-06T04:03:15.663Z,97628.31
2023-03-06T04:05:45.145Z,97627.81
2023-03-06T04:08:15.174Z,97628.81
2023-03-06T04:10:44.865Z,97628.81
2023-03-06T04:13:14.187Z,97623.91
2023-03-06T04:15:43.717Z,97627.19
2023-03-06T04:18:11.473Z,97619.59
2023-03-06T04:20:39.439Z,97628.81
2023-03-06T04:23:06.639Z,97621.13
2023-03-06T04:25:33.711Z,97628.00
2023-03-06T04:28:02.997Z,97618.63
2023-03-06T04:30:31.046Z,97623.72
2023-03-06T04:32:58.576Z,97618.78
2023-03-06T04:35:25.890Z,97625.19
2023-03-06T04:37:58.998Z,97628.81
2023-03-06T04:40:31.622Z,97620.44
2023-03-06T04:43:00.584Z,97624.53
2023-03-06T04:45:29.375Z,97629.44
2023-03-06T04:47:57.283Z,97622.88
2023-03-06T04:50:25.583Z,97623.50
2023-03-06T04:52:52.717Z,97625.50
2023-03-06T04:55:20.293Z,97629.44
2023-03-06T04:57:47.927Z,97626.16
2023-03-06T05:00:20.852Z,97628.09
2023-03-06T05:02:49.155Z,97627.97
2023-03-06T05:05:17.929Z,97631.41
2023-03-06T05:07:45.258Z,97635.38
2023-03-06T05:10:14.877Z,97637.94
2023-03-06T05:12:42.244Z,97633.34
2023-03-06T05:15:10.819Z,97637.94
2023-03-06T05:17:37.982Z,97637.28
2023-03-06T05:20:07.489Z,97639.91
2023-03-06T05:22:34.923Z,97637.25
2023-03-06T05:25:02.166Z,97642.31
2023-03-06T05:27:30.979Z,97644.53
2023-03-06T05:29:58.451Z,97634.78
2023-03-06T05:32:25.628Z,97642.97
2023-03-06T05:34:52.677Z,97638.19
2023-03-06T05:37:19.787Z,97634.41
2023-03-06T05:39:47.021Z,97643.66
2023-03-06T05:42:14.059Z,97641.19
2023-03-06T05:44:41.922Z,97648.34
2023-03-06T05:47:09.365Z,97652.06
2023-03-06T05:49:36.860Z,97649.81
2023-03-06T05:52:05.565Z,97654.94
2023-03-06T05:54:34.675Z,97654.56
2023-03-06T05:57:04.379Z,97659.50
2023-03-06T05:59:33.202Z,97654.88
2023-03-06T06:02:01.404Z,97657.69
2023-03-06T06:04:28.875Z,97658.75
2023-03-06T06:06:57.782Z,97656.28
2023-03-06T06:09:25.957Z,97657.06
2023-03-06T06:11:54.938Z,97659.91
2023-03-06T06:14:21.962Z,97656.78
2023-03-06T06:16:49.134Z,97654.03
2023-03-06T06:19:20.276Z,97651.50
2023-03-06T06:21:49.805Z,97653.31
2023-03-06T06:24:19.130Z,97649.41
2023-03-06T06:26:46.418Z,97648.53
2023-03-06T06:29:13.835Z,97657.94
2023-03-06T06:31:41.491Z,97657.41
2023-03-06T06:34:10.805Z,97655.13
2023-03-06T06:36:38.245Z,97655.91
2023-03-06T06:39:07.451Z,97658.69
2023-03-06T06:41:53.412Z,97664.63
2023-03-06T06:44:22.413Z,97672.03
2023-03-06T06:47:21.421Z,97667.44
2023-03-06T06:49:37.650Z,97672.59
2023-03-06T06:52:05.849Z,97669.13
2023-03-06T06:54:34.197Z,97682.72
2023-03-06T06:57:01.278Z,97677.16
2023-03-06T06:59:28.385Z,97677.91
2023-03-06T07:01:55.498Z,97679.69
2023-03-06T07:04:22.760Z,97681.16
2023-03-06T07:06:49.809Z,97680.13
2023-03-06T07:09:16.992Z,97680.78
2023-03-06T07:11:44.075Z,97667.81
2023-03-06T07:14:11.091Z,97675.38
2023-03-06T07:16:38.172Z,97673.72
2023-03-06T07:19:05.313Z,97677.31
2023-03-06T07:21:32.881Z,97668.22
2023-03-06T07:24:00.045Z,97673.91
2023-03-06T07:26:28.287Z,97671.09
2023-03-06T07:28:55.517Z,97673.50
2023-03-06T07:31:25.527Z,97687.16
2023-03-06T07:33:54.405Z,97686.44
2023-03-06T07:36:24.967Z,97684.78
2023-03-06T07:38:52.066Z,97687.81
2023-03-06T07:41:22.159Z,97686.50
2023-03-06T07:43:50.409Z,97693.91
2023-03-06T07:46:17.834Z,97687.16
2023-03-06T07:48:45.019Z,97684.25
2023-03-06T07:51:20.453Z,97695.22
2023-03-06T07:53:48.384Z,97701.31
2023-03-06T07:56:16.375Z,97698.94
2023-03-06T07:58:45.329Z,97701.22
2023-03-06T08:01:15.556Z,97701.09
2023-03-06T08:03:42.737Z,97702.41
2023-03-06T08:06:14.951Z,97703.38
2023-03-06T08:08:44.753Z,97704.78
2023-03-06T08:11:13.371Z,97698.47
2023-03-06T08:13:41.152Z,97704.56
2023-03-06T08:16:09.283Z,97703.00
2023-03-06T08:18:36.331Z,97704.56
2023-03-06T08:21:07.775Z,97703.75
2023-03-06T08:23:35.484Z,97701.84
2023-03-06T08:26:05.356Z,97703.19
2023-03-06T08:28:32.785Z,97700.91
2023-03-06T08:31:09.122Z,97705.94
2023-03-06T08:33:36.759Z,97698.19
2023-03-06T08:36:04.078Z,97697.72
2023-03-06T08:38:31.141Z,97699.63
2023-03-06T08:40:58.397Z,97707.66
2023-03-06T08:43:25.447Z,97707.72
2023-03-06T08:45:53.944Z,97700.56
2023-03-06T08:48:20.963Z,97701.75
2023-03-06T08:50:48.286Z,97705.47
2023-03-06T08:53:15.498Z,97714.47
2023-03-06T08:55:42.616Z,97711.88
2023-03-06T08:58:10.068Z,97709.91
2023-03-06T09:00:38.080Z,97715.09
2023-03-06T09:03:05.959Z,97715.19
2023-03-06T09:05:33.083Z,97720.00
2023-03-06T09:08:00.158Z,97716.50
2023-03-06T09:10:27.960Z,97718.22
2023-03-06T09:12:55.514Z,97717.31
2023-03-06T09:15:23.971Z,97718.31
2023-03-06T09:17:51.949Z,97728.47
2023-03-06T09:20:19.404Z,97717.47
2023-03-06T09:22:47.050Z,97731.97
2023-03-06T09:25:17.678Z,97723.38
2023-03-06T09:27:44.674Z,97731.59
2023-03-06T09:30:12.435Z,97720.91
2023-03-06T09:32:39.496Z,97723.44
2023-03-06T09:35:07.129Z,97729.00
2023-03-06T09:37:34.270Z,97727.09
2023-03-06T09:40:01.255Z,97731.38
2023-03-06T09:42:29.371Z,97738.63
2023-03-06T09:45:00.589Z,97736.50
2023-03-06T09:47:48.627Z,97734.63
2023-03-06T09:50:36.234Z,97743.13
2023-03-06T09:53:12.076Z,97744.13
2023-03-06T09:55:40.771Z,97737.56
2023-03-06T09:58:47.608Z,97734.09
2023-03-06T10:01:25.419Z,97743.78
2023-03-06T10:04:02.193Z,97748.69
2023-03-06T10:06:45.920Z,97731.09
2023-03-06T10:09:41.959Z,97750.63
2023-03-06T10:12:25.383Z,97741.72
2023-03-06T10:15:02.162Z,97751.19
2023-03-06T10:17:37.839Z,97741.59
2023-03-06T10:20:22.209Z,97745.53
2023-03-06T10:23:07.861Z,97750.38
2023-03-06T10:25:56.769Z,97747.56
2023-03-06T10:28:36.676Z,97741.16
2023-03-06T10:31:21.449Z,97746.84
2023-03-06T10:33:54.509Z,97744.41
2023-03-06T10:36:27.336Z,97731.28
2023-03-06T10:38:57.622Z,97733.41
2023-03-06T10:41:32.201Z,97729.31
2023-03-06T10:44:05.346Z,97745.38
2023-03-06T10:46:36.532Z,97744.00
2023-03-06T10:49:22.530Z,97739.41
2023-03-06T10:52:09.840Z,97738.78
2023-03-06T10:54:42.649Z,97738.56
2023-03-06T10:57:27.905Z,97746.06
2023-03-06T10:59:58.955Z,97750.47
2023-03-06T11:02:31.487Z,97756.50
2023-03-06T11:05:00.477Z,97750.06
2023-03-06T11:07:33.173Z,97755.81
2023-03-06T11:10:19.169Z,97750.84
2023-03-06T11:13:09.118Z,97756.25
2023-03-06T11:15:36.386Z,97752.97
2023-03-06T11:18:09.509Z,97752.41
2023-03-06T11:20:54.431Z,97748.31
2023-03-06T11:23:44.786Z,97745.63
2023-03-06T11:26:17.851Z,97747.63
2023-03-06T11:29:12.322Z,97751.31
2023-03-06T11:31:54.801Z,97749.94
2023-03-06T11:35:07.988Z,97752.72
2023-03-06T11:37:57.514Z,97767.84
2023-03-06T11:40:31.741Z,97756.94
2023-03-06T11:42:58.728Z,97755.47
2023-03-06T11:45:46.550Z,97752.84
2023-03-06T11:48:17.616Z,97753.28
2023-03-06T11:50:47.916Z,97746.50
2023-03-06T11:53:21.507Z,97757.75
2023-03-06T11:55:54.356Z,97755.22
2023-03-06T11:58:40.429Z,97749.66
2023-03-06T12:01:23.475Z,97762.00
2023-03-06T12:04:02.747Z,97766.00
2023-03-06T12:06:53.044Z,97769.94
2023-03-06T12:09:28.495Z,97764.88
2023-03-06T12:12:25.740Z,97771.56
2023-03-06T12:14:52.818Z,97783.81
2023-03-06T12:17:26.801Z,97780.34
2023-03-06T12:20:19.990Z,97772.09
2023-03-06T12:22:57.916Z,97781.31
2023-03-06T12:25:38.205Z,97787.19
2023-03-06T12:28:20.382Z,97795.53
2023-03-06T12:30:56.381Z,97805.28
2023-03-06T12:33:31.479Z,97807.81
2023-03-06T12:36:22.667Z,97799.88
2023-03-06T12:39:11.531Z,97797.09
2023-03-06T12:42:23.215Z,97794.09
2023-03-06T12:45:19.433Z,97801.53
2023-03-06T12:47:48.976Z,97797.28
2023-03-06T12:50:34.588Z,97800.06
2023-03-06T12:53:04.603Z,97799.59
2023-03-06T12:55:48.994Z,97791.81
2023-03-06T12:58:31.360Z,97798.56
2023-03-06T13:01:09.759Z,97792.09
2023-03-06T13:04:14.101Z,97794.38
2023-03-06T13:07:22.852Z,97802.31
2023-03-06T13:10:06.146Z,97818.94
2023-03-06T13:12:49.542Z,97818.75
2023-03-06T13:15:35.238Z,97825.75
2023-03-06T13:18:25.616Z,97821.03
2023-03-06T13:20:56.975Z,97820.09
2023-03-06T13:23:30.390Z,97804.88
2023-03-06T13:25:58.593Z,97804.28
2023-03-06T13:28:50.657Z,97813.25
2023-03-06T13:31:28.894Z,97807.34
2023-03-06T13:34:02.459Z,97812.16
2023-03-06T13:36:39.725Z,97821.19
2023-03-06T13:39:11.181Z,97816.72
2023-03-06T13:41:53.237Z,97811.19
2023-03-06T13:44:26.297Z,97820.28
2023-03-06T13:47:02.728Z,97824.06
2023-03-06T13:49:30.444Z,97825.13
2023-03-06T13:52:29.666Z,97827.91
2023-03-06T13:55:15.542Z,97827.81
2023-03-06T13:57:58.023Z,97821.94
2023-03-06T14:00:43.397Z,97828.72
2023-03-06T14:03:32.601Z,97837.13
2023-03-06T14:05:59.997Z,97840.16
2023-03-06T14:08:34.308Z,97837.41
2023-03-06T14:11:15.538Z,97838.41
2023-03-06T14:13:57.256Z,97839.59
2023-03-06T14:16:29.190Z,97843.22
2023-03-06T14:19:01.043Z,97841.59
2023-03-06T14:21:32.157Z,97841.75
2023-03-06T14:24:01.419Z,97846.72
2023-03-06T14:26:51.931Z,97846.53
2023-03-06T14:29:24.764Z,97854.16
2023-03-06T14:31:54.860Z,97850.56
2023-03-06T14:34:25.863Z,97850.88
2023-03-06T14:36:56.049Z,97853.81
2023-03-06T14:39:42.595Z,97859.09
2023-03-06T14:42:20.885Z,97853.81
2023-03-06T14:44:49.983Z,97864.03
2023-03-06T14:47:27.968Z,97862.72
2023-03-06T14:50:30.398Z,97863.72
2023-03-06T14:53:05.108Z,97864.53
2023-03-06T14:55:35.367Z,97872.63
2023-03-06T14:58:13.835Z,97879.56
2023-03-06T15:00:45.498Z,97884.50
2023-03-06T15:03:41.168Z,97890.06
2023-03-06T15:06:36.720Z,97892.72
2023-03-06T15:09:08.232Z,97900.25
2023-03-06T15:11:56.439Z,97896.13
2023-03-06T15:14:48.188Z,97899.75
2023-03-06T15:17:16.228Z,97907.81
2023-03-06T15:19:44.612Z,97916.03
2023-03-06T15:22:41.236Z,97917.31
2023-03-06T15:25:30.140Z,97917.13
2023-03-06T15:28:22.574Z,97924.56
2023-03-06T15:31:28.074Z,97925.41
2023-03-06T15:34:07.083Z,97925.41
2023-03-06T15:36:39.770Z,97929.66
2023-03-06T15:39:29.112Z,97932.91
2023-03-06T15:42:14.453Z,97936.31
2023-03-06T15:44:42.088Z,97934.31
2023-03-06T15:47:39.884Z,97943.41
2023-03-06T15:50:19.495Z,97945.84
2023-03-06T15:52:48.454Z,97948.16
2023-03-06T15:55:19.200Z,97954.75
2023-03-06T15:58:02.460Z,97954.59
2023-03-06T16:00:35.323Z,97948.13
2023-03-06T16:03:03.174Z,97953.06
2023-03-06T16:05:30.994Z,97964.44
2023-03-06T16:07:58.228Z,97965.00
2023-03-06T16:10:29.086Z,97970.44
2023-03-06T16:13:10.288Z,97971.28
2023-03-06T16:15:47.000Z,97981.66
2023-03-06T16:18:14.039Z,97979.66
2023-03-06T16:20:41.795Z,97983.94
2023-03-06T16:23:12.551Z,97986.41
2023-03-06T16:25:43.140Z,97988.59
2023-03-06T16:28:15.637Z,97989.09
2023-03-06T16:30:44.541Z,98000.28
2023-03-06T16:33:13.841Z,97999.16
2023-03-06T16:35:41.492Z,97992.41
2023-03-06T16:38:10.362Z,98005.56
2023-03-06T16:40:41.418Z,97995.81
2023-03-06T16:43:10.967Z,97994.28
2023-03-06T16:45:40.396Z,97997.69
2023-03-06T16:48:11.170Z,98003.34
2023-03-06T16:50:40.289Z,98008.78
2023-03-06T16:53:08.027Z,98003.84
2023-03-06T16:55:35.097Z,98005.41
2023-03-06T16:58:02.370Z,98019.75
2023-03-06T17:00:32.144Z,98010.22
2023-03-06T17:03:00.843Z,98017.28
2023-03-06T17:05:29.066Z,98017.44
2023-03-06T17:07:56.256Z,98022.28
2023-03-06T17:10:26.456Z,98021.47
2023-03-06T17:12:55.427Z,98020.59
2023-03-06T17:15:22.970Z,98025.53
2023-03-06T17:17:51.769Z,98022.91
2023-03-06T17:20:19.891Z,98022.66
2023-03-06T17:22:46.989Z,98033.53
2023-03-06T17:25:14.201Z,98028.94
2023-03-06T17:27:41.328Z,98036.53
2023-03-06T17:30:09.123Z,98027.66
2023-03-06T17:32:37.566Z,98039.97
2023-03-06T17:35:05.323Z,98031.94
2023-03-06T17:37:32.713Z,98041.47
2023-03-06T17:39:59.859Z,98050.03
2023-03-06T17:42:26.890Z,98055.13
2023-03-06T17:44:54.219Z,98062.22
2023-03-06T17:47:21.419Z,98055.44
2023-03-06T17:49:48.511Z,98047.09
2023-03-06T17:52:15.759Z,98070.78
2023-03-06T17:54:42.718Z,98062.22
2023-03-06T17:57:09.712Z,98057.09
2023-03-06T17:59:36.698Z,98068.16
2023-03-06T18:02:03.905Z,98070.09
2023-03-06T18:04:30.968Z,98076.34
2023-03-06T18:06:58.464Z,98071.72
2023-03-06T18:09:25.502Z,98071.25
2023-03-06T18:11:52.698Z,98076.00
2023-03-06T18:14:19.675Z,98079.41
2023-03-06T18:16:47.070Z,98083.16
2023-03-06T18:19:14.512Z,98073.78
2023-03-06T18:21:41.545Z,98077.00
2023-03-06T18:24:11.435Z,98088.13
2023-03-06T18:26:42.245Z,98084.16
2023-03-06T18:29:09.247Z,98090.06
2023-03-06T18:31:38.789Z,98086.78
2023-03-06T18:34:11.280Z,98089.84
2023-03-06T18:36:56.994Z,98087.41
2023-03-06T18:39:24.063Z,98088.75
2023-03-06T18:41:51.803Z,98087.53
2023-03-06T18:44:19.396Z,98091.28
2023-03-06T18:46:46.548Z,98091.84
2023-03-06T18:49:14.597Z,98089.94
2023-03-06T18:51:41.923Z,98093.56
2023-03-06T18:54:12.407Z,98100.44
2023-03-06T18:56:44.218Z,98091.53
2023-03-06T18:59:18.948Z,98103.75
2023-03-06T19:01:47.343Z,98099.63
2023-03-06T19:04:15.732Z,98101.72
2023-03-06T19:06:42.967Z,98099.25
2023-03-06T19:09:11.436Z,98103.13
2023-03-06T19:11:38.522Z,98108.03
2023-03-06T19:14:05.778Z,98103.72
2023-03-06T19:16:32.889Z,98105.41
2023-03-06T19:18:59.934Z,98109.84
2023-03-06T19:21:27.839Z,98111.25
2023-03-06T19:23:56.159Z,98109.63
2023-03-06T19:26:23.635Z,98106.31
2023-03-06T19:28:52.591Z,98107.44
2023-03-06T19:31:25.169Z,98115.97
2023-03-06T19:33:53.575Z,98116.38
2023-03-06T19:36:26.716Z,98114.75
2023-03-06T19:38:55.562Z,98116.28
2023-03-06T19:41:23.081Z,98120.47
2023-03-06T19:43:53.179Z,98119.63
2023-03-06T19:46:22.188Z,98119.47
2023-03-06T19:48:55.023Z,98115.66
2023-03-06T19:51:22.476Z,98125.72
2023-03-06T19:53:49.480Z,98124.44
2023-03-06T19:56:23.703Z,98125.66
2023-03-06T19:58:51.311Z,98124.53
2023-03-06T20:01:20.981Z,98128.91
2023-03-06T20:03:49.469Z,98119.19
2023-03-06T20:06:19.505Z,98126.88
2023-03-06T20:08:47.753Z,98124.34
2023-03-06T20:11:19.417Z,98132.56
2023-03-06T20:13:47.998Z,98130.19
2023-03-06T20:16:16.241Z,98129.88
2023-03-06T20:18:43.339Z,98130.09
2023-03-06T20:21:10.744Z,98128.84
2023-03-06T20:23:38.163Z,98139.66
2023-03-06T20:26:09.599Z,98136.19
2023-03-06T20:28:39.235Z,98140.41
2023-03-06T20:31:07.729Z,98130.28
2023-03-06T20:33:34.924Z,98131.22
2023-03-06T20:36:01.964Z,98136.56
2023-03-06T20:38:29.110Z,98135.06
2023-03-06T20:40:58.155Z,98136.94
2023-03-06T20:43:25.278Z,98133.03
2023-03-06T20:46:04.040Z,98136.88
2023-03-06T20:48:31.124Z,98135.56
2023-03-06T20:51:07.294Z,98136.34
2023-03-06T20:53:35.316Z,98126.03
2023-03-06T20:56:02.498Z,98134.06
2023-03-06T20:58:31.673Z,98142.34
2023-03-06T21:00:59.942Z,98138.72
2023-03-06T21:03:29.295Z,98141.34
2023-03-06T21:05:56.817Z,98134.88
2023-03-06T21:08:24.211Z,98141.66
2023-03-06T21:10:51.393Z,98133.47
2023-03-06T21:13:18.552Z,98133.56
2023-03-06T21:15:47.610Z,98137.31
2023-03-06T21:18:14.945Z,98141.00
2023-03-06T21:20:42.300Z,98140.31
2023-03-06T21:23:09.528Z,98139.31
2023-03-06T21:25:36.766Z,98139.63
2023-03-06T21:28:03.844Z,98143.84
2023-03-06T21:30:30.990Z,98147.47
2023-03-06T21:32:58.084Z,98143.63
2023-03-06T21:35:25.254Z,98147.84
2023-03-06T21:37:52.325Z,98140.91
2023-03-06T21:40:19.572Z,98139.97
2023-03-06T21:42:46.521Z,98142.03
2023-03-06T21:45:13.744Z,98142.00
2023-03-06T21:47:41.116Z,98152.94
2023-03-06T21:50:10.650Z,98153.41
2023-03-06T21:52:37.684Z,98152.41
2023-03-06T21:55:05.512Z,98150.31
2023-03-06T21:57:32.817Z,98151.59
2023-03-06T21:59:59.938Z,98156.38
2023-03-06T22:02:26.972Z,98160.47
2023-03-06T22:04:54.456Z,98147.38
2023-03-06T22:07:21.748Z,98159.25
2023-03-06T22:09:51.638Z,98149.38
2023-03-06T22:12:18.647Z,98145.50
2023-03-06T22:14:45.740Z,98148.78
2023-03-06T22:17:13.193Z,98153.09
2023-03-06T22:19:40.256Z,98147.16
2023-03-06T22:22:08.286Z,98156.84
2023-03-06T22:24:36.893Z,98145.50
2023-03-06T22:27:04.166Z,98152.28
2023-03-06T22:29:31.201Z,98150.47
2023-03-06T22:31:58.386Z,98145.34
2023-03-06T22:34:26.713Z,98135.81
2023-03-06T22:36:53.803Z,98141.91
2023-03-06T22:39:20.768Z,98147.91
2023-03-06T22:41:47.731Z,98151.00
2023-03-06T22:44:17.490Z,98144.91
2023-03-06T22:46:45.459Z,98140.63
2023-03-06T22:49:13.858Z,98152.31
2023-03-06T22:51:40.964Z,98144.44
2023-03-06T22:54:08.288Z,98147.63
2023-03-06T22:56:35.997Z,98140.75
2023-03-06T22:59:03.380Z,98147.06
2023-03-06T23:01:33.114Z,98136.56
2023-03-06T23:04:02.995Z,98145.78
2023-03-06T23:06:31.476Z,98147.34
2023-03-06T23:09:07.919Z,98143.44
2023-03-06T23:11:53.523Z,98142.91
2023-03-06T23:14:39.312Z,98146.53
2023-03-06T23:17:25.196Z,98139.06
2023-03-06T23:20:13.428Z,98135.53
2023-03-06T23:22:59.051Z,98143.81
2023-03-06T23:25:41.482Z,98141.06
2023-03-06T23:28:08.526Z,98135.81
2023-03-06T23:30:35.599Z,98135.28
2023-03-06T23:33:02.582Z,98132.03
2023-03-06T23:35:29.708Z,98138.41
2023-03-06T23:37:57.494Z,98129.56
2023-03-06T23:40:24.975Z,98134.47
2023-03-06T23:42:51.980Z,98133.47
2023-03-06T23:45:19.251Z,98121.41
2023-03-06T23:47:46.261Z,98124.16
2023-03-06T23:50:14.179Z,98129.50
2023-03-06T23:52:41.212Z,98134.88
2023-03-06T23:55:09.181Z,98134.06
2023-03-06T23:57:36.308Z,98127.50
